Time;durP1;ratioP1;P1;durP2;ratioP2;P2;SDS_P1;SDS_P2;PMS_P1;PMS_P2;Temp;Humidity;BMP_temperature;BMP_pressure;BME280_temperature;BME280_humidity;BME280_pressure;Samples;Min_cycle;Max_cycle;Signal;HPM_P1;HPM_P2
2022/01/08 00:01:00;;;;;;;6.03;3.40;;;2.30;99.90;;;;;;5059186;28;20327;-47
2022/01/08 00:03:27;;;;;;;5.43;3.60;;;2.30;99.90;;;;;;5061857;28;20223;-47
2022/01/08 00:05:56;;;;;;;5.47;3.70;;;2.30;99.90;;;;;;5039293;28;21789;-47
2022/01/08 00:08:24;;;;;;;9.40;3.57;;;2.30;99.90;;;;;;5055461;28;20368;-48
2022/01/08 00:10:51;;;;;;;5.43;3.77;;;2.20;99.90;;;;;;5044909;28;20239;-47
2022/01/08 00:13:20;;;;;;;5.90;3.80;;;2.30;99.90;;;;;;5055115;28;20218;-47
2022/01/08 00:15:46;;;;;;;5.80;3.77;;;2.20;99.90;;;;;;5041597;28;20195;-47
2022/01/08 00:18:13;;;;;;;5.20;3.73;;;2.20;99.90;;;;;;5055906;28;20216;-47
2022/01/08 00:20:40;;;;;;;4.73;3.13;;;2.20;99.90;;;;;;5047875;28;20207;-47
2022/01/08 00:23:07;;;;;;;6.03;4.37;;;2.20;99.90;;;;;;5061730;28;20852;-46
2022/01/08 00:25:34;;;;;;;7.60;3.97;;;2.20;99.90;;;;;;5044495;28;20212;-47
2022/01/08 00:28:01;;;;;;;4.50;3.70;;;2.20;99.90;;;;;;5043073;28;20229;-47
2022/01/08 00:30:30;;;;;;;6.90;3.93;;;2.10;99.90;;;;;;5036742;28;20740;-47
2022/01/08 00:32:58;;;;;;;7.47;4.07;;;2.10;99.90;;;;;;5059521;28;20901;-47
2022/01/08 00:35:26;;;;;;;6.30;3.53;;;2.20;99.90;;;;;;5055030;28;20210;-47
2022/01/08 00:37:53;;;;;;;5.83;3.73;;;2.20;99.90;;;;;;5046110;28;20226;-47
2022/01/08 00:40:20;;;;;;;5.13;3.77;;;2.20;99.90;;;;;;5042469;28;20268;-47
2022/01/08 00:42:47;;;;;;;7.33;4.73;;;2.20;99.90;;;;;;5050766;28;20253;-46
2022/01/08 00:45:13;;;;;;;6.47;4.33;;;2.20;99.90;;;;;;5053909;28;21852;-47
2022/01/08 00:47:42;;;;;;;6.97;4.50;;;2.10;99.90;;;;;;5069416;28;20748;-47
2022/01/08 00:50:10;;;;;;;7.27;5.27;;;2.20;99.90;;;;;;5037703;28;20214;-47
2022/01/08 00:52:37;;;;;;;5.77;3.93;;;2.20;99.90;;;;;;5062572;28;20234;-47
2022/01/08 00:55:04;;;;;;;9.17;5.10;;;2.20;99.90;;;;;;5052460;28;20206;-47
2022/01/08 00:57:31;;;;;;;7.53;4.80;;;2.20;99.90;;;;;;5064159;28;20720;-47
2022/01/08 00:59:58;;;;;;;8.27;5.23;;;2.20;99.90;;;;;;5049826;28;20212;-47
2022/01/08 01:02:25;;;;;;;8.90;5.23;;;2.30;99.90;;;;;;5048870;28;20742;-47
2022/01/08 01:04:53;;;;;;;8.73;5.20;;;2.30;99.90;;;;;;5056845;28;20213;-47
2022/01/08 01:07:20;;;;;;;8.23;5.20;;;2.30;99.90;;;;;;5046757;28;21115;-48
2022/01/08 01:09:47;;;;;;;10.67;5.83;;;2.30;99.90;;;;;;5066838;28;20219;-47
2022/01/08 01:12:14;;;;;;;12.23;6.47;;;2.30;99.90;;;;;;5045107;28;20838;-47
2022/01/08 01:14:41;;;;;;;10.07;5.80;;;2.30;99.90;;;;;;5047469;28;20209;-46
2022/01/08 01:17:08;;;;;;;11.93;5.47;;;2.40;99.90;;;;;;5040379;28;21870;-47
2022/01/08 01:19:36;;;;;;;9.17;6.10;;;2.40;99.90;;;;;;5055216;28;20230;-47
2022/01/08 01:22:05;;;;;;;8.43;5.87;;;2.40;99.90;;;;;;5053623;28;20459;-47
2022/01/08 01:24:33;;;;;;;8.07;5.57;;;2.40;99.90;;;;;;5063937;28;20252;-47
2022/01/08 01:27:27;;;;;;;8.73;5.63;;;2.40;99.90;;;;;;5046488;28;20265;-47
2022/01/08 01:30:01;;;;;;;11.93;6.20;;;2.40;99.90;;;;;;5052073;28;20211;-46
2022/01/08 01:46:59;;;;;;;9.67;6.90;;;2.40;99.90;;;;;;5035802;28;20311;-47
2022/01/08 01:49:12;;;;;;;10.67;6.23;;;2.50;99.90;;;;;;4998633;28;20239;-47
2022/01/08 01:51:39;;;;;;;11.27;6.87;;;2.40;99.90;;;;;;5046285;28;20201;-47
2022/01/08 01:54:07;;;;;;;12.10;7.07;;;2.40;99.90;;;;;;5058793;28;20217;-46
2022/01/08 01:56:35;;;;;;;11.27;7.47;;;2.40;99.90;;;;;;5058255;28;20225;-47
2022/01/08 01:59:01;;;;;;;12.47;7.23;;;2.40;99.90;;;;;;5030448;28;20677;-46
2022/01/08 02:01:28;;;;;;;14.37;7.57;;;2.40;99.90;;;;;;5066716;28;20196;-46
2022/01/08 02:03:55;;;;;;;12.93;7.10;;;2.40;99.90;;;;;;5048244;28;20229;-47
2022/01/08 02:06:22;;;;;;;16.47;7.07;;;2.40;99.90;;;;;;5050421;28;20215;-43
2022/01/08 02:08:49;;;;;;;9.93;6.93;;;2.40;99.90;;;;;;5056613;28;20570;-42
2022/01/08 02:11:20;;;;;;;11.70;7.37;;;2.40;99.90;;;;;;5059756;28;20224;-42
2022/01/08 02:13:47;;;;;;;11.50;7.53;;;2.40;99.90;;;;;;5053634;28;20233;-42
2022/01/08 02:16:17;;;;;;;11.93;7.10;;;2.40;99.90;;;;;;5055606;28;20231;-42
2022/01/08 02:18:45;;;;;;;10.07;7.23;;;2.30;99.90;;;;;;5058985;28;20224;-42
2022/01/08 02:21:14;;;;;;;12.63;6.93;;;2.40;99.90;;;;;;5047992;28;20217;-42
2022/01/08 02:23:41;;;;;;;11.23;6.50;;;2.30;99.90;;;;;;5061124;28;20221;-41
2022/01/08 02:26:09;;;;;;;13.37;7.33;;;2.30;99.90;;;;;;5061045;28;20231;-42
2022/01/08 02:28:37;;;;;;;10.60;6.60;;;2.20;99.90;;;;;;5052946;28;20201;-42
2022/01/08 02:31:04;;;;;;;10.93;7.13;;;2.20;99.90;;;;;;5055786;28;20222;-42
2022/01/08 02:33:32;;;;;;;10.53;6.67;;;2.20;99.90;;;;;;5051628;28;20252;-42
2022/01/08 02:36:04;;;;;;;10.43;6.90;;;2.20;99.90;;;;;;5051311;28;20231;-42
2022/01/08 02:38:32;;;;;;;13.93;6.87;;;2.20;99.90;;;;;;5058360;28;21214;-42
2022/01/08 02:41:03;;;;;;;9.40;6.20;;;2.10;99.90;;;;;;5053764;28;20660;-42
2022/01/08 02:43:33;;;;;;;11.30;6.50;;;2.10;99.90;;;;;;5066588;28;20233;-42
2022/01/08 02:46:00;;;;;;;13.03;7.03;;;2.10;99.90;;;;;;5057311;28;20202;-42
2022/01/08 02:48:27;;;;;;;12.47;6.87;;;2.10;99.90;;;;;;5039987;28;20210;-42
2022/01/08 02:50:54;;;;;;;18.93;7.30;;;2.10;99.90;;;;;;5057576;28;20572;-42
2022/01/08 02:53:21;;;;;;;11.80;6.43;;;2.10;99.90;;;;;;5069601;28;20202;-42
2022/01/08 02:55:49;;;;;;;11.90;6.60;;;2.10;99.90;;;;;;5063252;28;20214;-42
2022/01/08 02:58:16;;;;;;;11.70;6.93;;;2.00;99.90;;;;;;5054154;28;20205;-42
2022/01/08 03:00:43;;;;;;;15.00;7.07;;;2.00;99.90;;;;;;5059765;28;20201;-42
2022/01/08 03:03:10;;;;;;;13.03;6.87;;;2.00;99.90;;;;;;5068075;28;20193;-42
2022/01/08 03:05:36;;;;;;;9.53;6.77;;;2.10;99.90;;;;;;5046177;28;20229;-42
2022/01/08 03:08:03;;;;;;;13.30;8.07;;;2.10;99.90;;;;;;5049195;28;20617;-42
2022/01/08 03:10:30;;;;;;;11.53;7.03;;;2.10;99.90;;;;;;5048846;28;20730;-42
2022/01/08 03:12:58;;;;;;;13.83;7.43;;;2.10;99.90;;;;;;5058915;28;20212;-42
2022/01/08 03:15:26;;;;;;;12.27;7.30;;;2.10;99.90;;;;;;5058693;28;20351;-42
2022/01/08 03:17:53;;;;;;;12.40;7.97;;;2.00;99.90;;;;;;5063712;28;20219;-42
2022/01/08 03:20:20;;;;;;;14.47;7.23;;;2.00;99.90;;;;;;5058728;28;20266;-42
2022/01/08 03:22:48;;;;;;;10.57;6.20;;;2.00;99.90;;;;;;5043004;28;20212;-42
2022/01/08 03:25:16;;;;;;;11.03;6.57;;;2.00;99.90;;;;;;5061063;28;20231;-42
2022/01/08 03:28:21;;;;;;;9.17;6.97;;;2.00;99.90;;;;;;5055135;28;20227;-42
2022/01/08 03:30:49;;;;;;;10.57;6.73;;;2.00;99.90;;;;;;5054480;28;20205;-42
2022/01/08 03:33:16;;;;;;;11.90;7.30;;;2.00;99.90;;;;;;5070330;28;20227;-42
2022/01/08 03:35:43;;;;;;;11.07;6.83;;;2.00;99.90;;;;;;5054972;28;20205;-42
2022/01/08 03:38:10;;;;;;;11.20;6.30;;;2.00;99.90;;;;;;5048639;28;20214;-42
2022/01/08 03:40:37;;;;;;;9.63;6.57;;;2.10;99.90;;;;;;5060911;28;20206;-42
2022/01/08 03:43:03;;;;;;;10.87;6.77;;;2.10;99.90;;;;;;5065885;28;20212;-42
2022/01/08 03:45:30;;;;;;;9.33;6.17;;;2.10;99.90;;;;;;5034189;28;20230;-42
2022/01/08 03:48:19;;;;;;;10.67;6.47;;;2.20;99.90;;;;;;5058200;28;20228;-42
2022/01/08 03:50:47;;;;;;;12.63;5.93;;;2.10;99.90;;;;;;5061853;28;20214;-42
2022/01/08 03:53:13;;;;;;;8.10;6.07;;;2.10;99.90;;;;;;5050860;28;20795;-42
2022/01/08 03:55:40;;;;;;;12.07;6.80;;;2.10;99.90;;;;;;5058090;28;20764;-42
2022/01/08 03:58:07;;;;;;;8.93;6.37;;;2.10;99.90;;;;;;5041225;28;20207;-42
2022/01/08 04:00:34;;;;;;;10.07;5.73;;;2.00;99.90;;;;;;5063522;28;20217;-42
2022/01/08 04:03:02;;;;;;;10.70;6.77;;;2.10;99.90;;;;;;5054185;28;20193;-42
2022/01/08 04:05:29;;;;;;;8.83;5.93;;;2.00;99.90;;;;;;5061071;28;20234;-42
2022/01/08 04:07:56;;;;;;;11.70;6.10;;;2.00;99.90;;;;;;5034016;28;20234;-42
2022/01/08 04:10:23;;;;;;;11.63;6.40;;;2.00;99.90;;;;;;5068652;28;20215;-42
2022/01/08 04:12:54;;;;;;;13.10;6.07;;;2.10;99.90;;;;;;5053801;28;20206;-42
2022/01/08 04:15:39;;;;;;;11.47;5.63;;;2.10;99.90;;;;;;5052279;28;20886;-42
2022/01/08 04:18:08;;;;;;;8.50;5.80;;;2.00;99.90;;;;;;5032321;28;20321;-42
2022/01/08 04:20:45;;;;;;;9.70;6.53;;;1.90;99.90;;;;;;5065585;28;20721;-42
2022/01/08 04:23:13;;;;;;;9.63;6.47;;;1.90;99.90;;;;;;5041966;28;20674;-42
2022/01/08 04:25:40;;;;;;;13.03;6.53;;;1.90;99.90;;;;;;5058930;28;20222;-42
2022/01/08 04:28:07;;;;;;;9.57;6.50;;;1.90;99.90;;;;;;5033043;28;20237;-42
2022/01/08 04:30:34;;;;;;;8.10;6.17;;;1.90;99.90;;;;;;5071147;28;20201;-42
2022/01/08 04:33:01;;;;;;;8.70;5.63;;;1.80;99.90;;;;;;5040590;28;20206;-42
2022/01/08 04:35:29;;;;;;;9.97;6.47;;;1.90;99.90;;;;;;5059975;28;20853;-42
2022/01/08 04:37:56;;;;;;;9.03;6.47;;;1.90;99.90;;;;;;5057887;28;20229;-42
2022/01/08 04:40:23;;;;;;;10.20;6.50;;;1.80;99.90;;;;;;5056026;28;20902;-42
2022/01/08 04:42:50;;;;;;;10.03;6.20;;;1.80;99.90;;;;;;5049741;28;20577;-42
2022/01/08 04:45:17;;;;;;;11.73;6.40;;;1.80;99.90;;;;;;5051594;28;20219;-42
2022/01/08 04:47:44;;;;;;;14.50;6.77;;;1.90;99.90;;;;;;5050575;28;20605;-42
2022/01/08 04:50:12;;;;;;;9.57;6.80;;;1.90;99.90;;;;;;5058794;28;20293;-42
2022/01/08 04:52:40;;;;;;;11.00;6.93;;;1.90;99.90;;;;;;5060308;28;20213;-42
2022/01/08 04:55:08;;;;;;;10.00;6.93;;;2.00;99.90;;;;;;5031442;28;20215;-42
2022/01/08 04:57:34;;;;;;;11.00;7.23;;;1.90;99.90;;;;;;5067389;28;20317;-42
2022/01/08 05:00:01;;;;;;;15.77;8.10;;;2.00;99.90;;;;;;5045143;28;20206;-42
2022/01/08 05:02:28;;;;;;;14.00;7.00;;;1.90;99.90;;;;;;5054092;28;20215;-42
2022/01/08 05:04:55;;;;;;;12.53;7.50;;;1.90;99.90;;;;;;5057625;28;20223;-42
2022/01/08 05:07:22;;;;;;;11.53;7.20;;;1.90;99.90;;;;;;5050255;28;20256;-42
2022/01/08 05:09:50;;;;;;;14.10;7.67;;;1.90;99.90;;;;;;5046305;28;20586;-42
2022/01/08 05:12:17;;;;;;;14.97;9.70;;;1.90;99.90;;;;;;5062131;28;20320;-42
2022/01/08 05:14:44;;;;;;;13.30;8.57;;;1.90;99.90;;;;;;5067852;28;20208;-42
2022/01/08 05:17:14;;;;;;;13.97;8.27;;;1.90;99.90;;;;;;5062700;28;20229;-42
2022/01/08 05:19:44;;;;;;;16.40;9.07;;;1.90;99.90;;;;;;5040409;28;20316;-42
2022/01/08 05:22:20;;;;;;;13.93;8.03;;;2.00;99.90;;;;;;5066379;28;20196;-42
2022/01/08 05:24:47;;;;;;;13.60;8.47;;;1.90;99.90;;;;;;5059704;28;20234;-42
2022/01/08 05:27:17;;;;;;;15.50;8.23;;;1.90;99.90;;;;;;5048421;28;20222;-42
2022/01/08 05:29:44;;;;;;;16.00;7.97;;;1.90;99.90;;;;;;5065032;28;20214;-42
2022/01/08 05:32:16;;;;;;;13.83;8.40;;;2.00;99.90;;;;;;5058153;28;20212;-42
2022/01/08 05:34:43;;;;;;;14.13;8.90;;;1.90;99.90;;;;;;5039803;28;21020;-42
2022/01/08 05:37:10;;;;;;;13.97;7.67;;;1.90;99.90;;;;;;5066568;28;20228;-42
2022/01/08 05:39:37;;;;;;;16.70;8.17;;;2.00;99.90;;;;;;5066865;28;20201;-42
2022/01/08 05:42:04;;;;;;;19.27;8.20;;;2.00;99.90;;;;;;5036879;28;20564;-42
2022/01/08 05:44:33;;;;;;;13.03;8.83;;;1.90;99.90;;;;;;5062307;28;20221;-42
2022/01/08 05:47:01;;;;;;;14.90;8.23;;;1.90;99.90;;;;;;5048045;28;20227;-44
2022/01/08 05:49:27;;;;;;;14.17;7.93;;;1.90;99.90;;;;;;5054117;28;20927;-42
2022/01/08 05:51:54;;;;;;;10.73;7.60;;;1.90;99.90;;;;;;5063614;28;20682;-42
2022/01/08 05:54:21;;;;;;;13.03;8.03;;;1.90;99.90;;;;;;5072530;28;20209;-42
2022/01/08 05:56:49;;;;;;;11.67;7.77;;;1.90;99.90;;;;;;5054857;28;20220;-42
2022/01/08 05:59:16;;;;;;;15.40;7.77;;;1.90;99.90;;;;;;5057021;28;20242;-42
2022/01/08 06:01:44;;;;;;;14.70;8.47;;;1.90;99.90;;;;;;5066273;28;20326;-42
2022/01/08 06:04:11;;;;;;;11.33;7.40;;;1.90;99.90;;;;;;5065894;28;20921;-42
2022/01/08 06:06:40;;;;;;;12.50;7.23;;;1.90;99.90;;;;;;5034572;28;20232;-42
2022/01/08 06:09:07;;;;;;;10.07;7.33;;;1.80;99.90;;;;;;5065483;28;20884;-42
2022/01/08 06:11:34;;;;;;;14.37;7.33;;;1.90;99.90;;;;;;5058403;28;20206;-41
2022/01/08 06:14:02;;;;;;;12.70;7.63;;;1.80;99.90;;;;;;5053825;28;20213;-42
2022/01/08 06:16:33;;;;;;;13.40;8.03;;;1.90;99.90;;;;;;5069498;28;20221;-42
2022/01/08 06:19:02;;;;;;;12.80;8.43;;;1.80;99.90;;;;;;5046545;28;20211;-42
2022/01/08 06:21:29;;;;;;;13.30;7.83;;;1.80;99.90;;;;;;5056049;28;20217;-42
2022/01/08 06:23:56;;;;;;;12.97;8.23;;;1.80;99.90;;;;;;5063140;28;20207;-42
2022/01/08 06:26:23;;;;;;;15.53;8.30;;;1.90;99.90;;;;;;5070392;28;20227;-42
2022/01/08 06:28:51;;;;;;;13.87;8.53;;;1.90;99.90;;;;;;5044372;28;20225;-42
2022/01/08 06:31:18;;;;;;;10.97;7.77;;;2.00;99.90;;;;;;5050653;28;20245;-42
2022/01/08 06:33:45;;;;;;;13.53;7.83;;;1.90;99.90;;;;;;5051421;28;20202;-42
2022/01/08 06:36:14;;;;;;;15.43;8.40;;;1.90;99.90;;;;;;5044203;28;20239;-44
2022/01/08 06:38:41;;;;;;;11.53;7.93;;;1.80;99.90;;;;;;5064697;28;20593;-42
2022/01/08 06:41:08;;;;;;;16.70;8.60;;;1.90;99.90;;;;;;5053317;28;20272;-42
2022/01/08 06:43:34;;;;;;;15.27;8.40;;;1.90;99.90;;;;;;5052693;28;20253;-42
2022/01/08 06:46:01;;;;;;;11.23;7.83;;;1.80;99.90;;;;;;5047101;28;20228;-42
2022/01/08 06:48:28;;;;;;;16.50;8.33;;;1.80;99.90;;;;;;5053884;28;20202;-42
2022/01/08 06:50:55;;;;;;;11.80;8.13;;;1.80;99.90;;;;;;5067769;28;20283;-42
2022/01/08 06:53:24;;;;;;;14.87;8.17;;;1.80;99.90;;;;;;5052429;28;20205;-41
2022/01/08 06:55:50;;;;;;;15.37;7.93;;;1.80;99.90;;;;;;5053446;28;20208;-42
2022/01/08 06:58:20;;;;;;;9.23;6.93;;;1.80;99.90;;;;;;5069478;28;20328;-42
2022/01/08 07:00:47;;;;;;;9.13;7.20;;;1.70;99.90;;;;;;5022043;28;20252;-42
2022/01/08 07:03:14;;;;;;;11.80;7.67;;;1.80;99.90;;;;;;5053851;28;20233;-42
2022/01/08 07:05:41;;;;;;;10.10;7.10;;;1.70;99.90;;;;;;5047401;28;20234;-42
2022/01/08 07:08:08;;;;;;;10.00;6.80;;;1.70;99.90;;;;;;5057283;28;20223;-42
2022/01/08 07:10:36;;;;;;;11.10;6.90;;;1.70;99.90;;;;;;5049392;28;20216;-42
2022/01/08 07:13:03;;;;;;;11.17;6.50;;;1.70;99.90;;;;;;5060628;28;20215;-42
2022/01/08 07:15:30;;;;;;;18.10;6.70;;;1.70;99.90;;;;;;5046626;28;20214;-42
2022/01/08 07:17:57;;;;;;;13.63;7.17;;;1.70;99.90;;;;;;5024692;28;20327;-42
2022/01/08 07:20:25;;;;;;;11.57;6.37;;;1.70;99.90;;;;;;5055205;28;20202;-42
2022/01/08 07:22:52;;;;;;;11.13;6.80;;;1.70;99.90;;;;;;5033917;28;20202;-42
2022/01/08 07:25:19;;;;;;;11.60;6.27;;;1.70;99.90;;;;;;5057710;28;20221;-42
2022/01/08 07:27:47;;;;;;;13.13;7.07;;;1.70;99.90;;;;;;5064004;28;20287;-42
2022/01/08 07:30:15;;;;;;;10.70;6.07;;;1.60;99.90;;;;;;5050171;28;20782;-42
2022/01/08 07:32:42;;;;;;;8.50;6.33;;;1.60;99.90;;;;;;5040425;28;20219;-42
2022/01/08 07:35:10;;;;;;;8.67;5.97;;;1.60;99.90;;;;;;5055490;28;20194;-42
2022/01/08 07:37:38;;;;;;;10.43;6.43;;;1.70;99.90;;;;;;5035415;28;20236;-42
2022/01/08 07:40:07;;;;;;;13.43;6.73;;;1.70;99.90;;;;;;5051037;28;21349;-42
2022/01/08 07:42:34;;;;;;;9.50;6.70;;;1.60;99.90;;;;;;5048690;28;20213;-42
2022/01/08 07:45:02;;;;;;;11.23;6.23;;;1.70;99.90;;;;;;5053277;28;20634;-42
2022/01/08 07:47:29;;;;;;;13.27;6.83;;;1.60;99.90;;;;;;5040608;28;20240;-42
2022/01/08 07:49:56;;;;;;;12.70;6.33;;;1.70;99.90;;;;;;5065339;28;20591;-42
2022/01/08 07:52:23;;;;;;;9.30;5.80;;;1.70;99.90;;;;;;5044522;28;20205;-42
2022/01/08 07:54:50;;;;;;;10.17;6.33;;;1.70;99.90;;;;;;5041975;28;20563;-42
2022/01/08 07:57:17;;;;;;;11.63;6.60;;;1.70;99.90;;;;;;5041591;28;23164;-42
2022/01/08 07:59:44;;;;;;;9.90;6.40;;;1.70;99.90;;;;;;5061932;28;20580;-42
2022/01/08 08:02:12;;;;;;;10.47;6.37;;;1.70;99.90;;;;;;5036078;28;21641;-42
2022/01/08 08:04:39;;;;;;;13.33;6.67;;;1.80;99.90;;;;;;5064447;28;20223;-42
2022/01/08 08:07:06;;;;;;;10.03;6.20;;;1.70;99.90;;;;;;5031381;28;20226;-47
2022/01/08 08:09:33;;;;;;;13.67;6.43;;;1.70;99.90;;;;;;5057479;28;20205;-47
2022/01/08 08:12:00;;;;;;;9.30;5.93;;;1.70;99.90;;;;;;5044134;28;20623;-47
2022/01/08 08:14:27;;;;;;;11.70;5.90;;;1.70;99.90;;;;;;5042472;28;20220;-47
2022/01/08 08:16:54;;;;;;;11.23;6.50;;;1.80;99.90;;;;;;5053706;28;20348;-47
2022/01/08 08:19:22;;;;;;;11.87;5.83;;;1.80;99.90;;;;;;5045900;28;20204;-47
2022/01/08 08:21:49;;;;;;;9.40;6.43;;;1.80;99.90;;;;;;5052188;28;20207;-42
2022/01/08 08:24:18;;;;;;;10.17;6.40;;;1.70;99.90;;;;;;5036616;28;20649;-42
2022/01/08 08:26:46;;;;;;;11.63;7.33;;;1.80;99.90;;;;;;5041412;28;20233;-42
2022/01/08 08:29:13;;;;;;;10.60;6.20;;;1.80;99.90;;;;;;5047833;28;20213;-39
2022/01/08 08:31:39;;;;;;;11.57;7.60;;;1.70;99.90;;;;;;5061135;28;25970;-39
2022/01/08 08:34:06;;;;;;;10.07;7.30;;;1.80;99.90;;;;;;5045692;28;20222;-39
2022/01/08 08:36:34;;;;;;;14.30;6.80;;;1.70;99.90;;;;;;5048712;28;20233;-39
2022/01/08 08:39:01;;;;;;;10.90;6.53;;;1.70;99.90;;;;;;5050868;28;20585;-39
2022/01/08 08:41:28;;;;;;;13.77;7.47;;;1.70;99.90;;;;;;5022722;28;20205;-39
2022/01/08 08:43:55;;;;;;;11.00;6.70;;;1.80;99.90;;;;;;5061352;28;20202;-39
2022/01/08 08:46:24;;;;;;;12.47;6.60;;;1.80;99.90;;;;;;5054896;28;20225;-39
2022/01/08 08:48:52;;;;;;;10.10;6.23;;;1.80;99.90;;;;;;5024377;28;20688;-47
2022/01/08 08:51:19;;;;;;;12.27;6.50;;;1.80;99.90;;;;;;5046457;28;21255;-47
2022/01/08 08:53:47;;;;;;;12.90;6.83;;;1.80;99.90;;;;;;5036302;28;20303;-47
2022/01/08 08:56:14;;;;;;;11.30;7.30;;;1.80;99.90;;;;;;5030217;28;20225;-47
2022/01/08 08:58:41;;;;;;;10.27;7.10;;;1.90;99.90;;;;;;5044273;28;20818;-42
2022/01/08 09:01:08;;;;;;;11.57;7.63;;;1.90;99.90;;;;;;5044441;28;20208;-42
2022/01/08 09:03:35;;;;;;;11.93;7.73;;;1.90;99.90;;;;;;5051820;28;20218;-42
2022/01/08 09:06:02;;;;;;;10.90;7.53;;;1.90;99.90;;;;;;5060646;28;20222;-42
2022/01/08 09:08:29;;;;;;;13.30;7.50;;;1.90;99.90;;;;;;5062074;28;20209;-42
2022/01/08 09:10:58;;;;;;;14.73;7.37;;;2.00;99.90;;;;;;5032815;28;20204;-42
2022/01/08 09:13:27;;;;;;;11.60;7.37;;;2.00;99.90;;;;;;5051613;28;20198;-42
2022/01/08 09:15:54;;;;;;;12.53;7.47;;;2.00;99.90;;;;;;5059632;28;20209;-43
2022/01/08 09:18:21;;;;;;;17.10;7.60;;;2.10;99.90;;;;;;5040497;28;20204;-43
2022/01/08 09:20:49;;;;;;;11.43;7.43;;;2.10;99.90;;;;;;5052714;28;20781;-43
2022/01/08 09:23:16;;;;;;;13.10;7.53;;;2.10;99.90;;;;;;5053307;28;20202;-42
2022/01/08 09:25:43;;;;;;;14.17;7.30;;;2.20;99.90;;;;;;5053783;28;20731;-43
2022/01/08 09:28:11;;;;;;;12.17;7.13;;;2.20;99.90;;;;;;5038727;28;20224;-42
2022/01/08 09:30:38;;;;;;;15.40;9.63;;;2.20;99.90;;;;;;5055397;28;20856;-43
2022/01/08 09:33:05;;;;;;;15.23;9.20;;;2.20;99.90;;;;;;5056910;28;20221;-42
2022/01/08 09:35:32;;;;;;;18.20;8.53;;;2.20;99.90;;;;;;5047896;28;20956;-42
2022/01/08 09:37:58;;;;;;;16.00;7.37;;;2.30;99.90;;;;;;5052121;28;20742;-42
2022/01/08 09:40:25;;;;;;;11.83;7.00;;;2.30;99.90;;;;;;5053483;28;20208;-42
2022/01/08 09:42:52;;;;;;;12.87;7.50;;;2.30;99.90;;;;;;5032849;28;20763;-42
2022/01/08 09:45:21;;;;;;;14.03;6.70;;;2.30;99.90;;;;;;5064521;28;20209;-42
2022/01/08 09:47:47;;;;;;;11.43;6.37;;;2.30;99.90;;;;;;5059172;28;21071;-42
2022/01/08 09:50:14;;;;;;;13.00;6.77;;;2.30;99.90;;;;;;5036305;28;20582;-42
2022/01/08 09:52:41;;;;;;;13.57;7.97;;;2.40;99.90;;;;;;5052122;28;20220;-42
2022/01/08 09:55:09;;;;;;;11.90;7.97;;;2.40;99.90;;;;;;5046767;28;20266;-43
2022/01/08 09:57:37;;;;;;;16.10;7.80;;;2.40;99.90;;;;;;5032484;28;20225;-42
2022/01/08 10:00:11;;;;;;;10.50;7.20;;;2.40;99.90;;;;;;5038534;28;20214;-47
2022/01/08 10:02:39;;;;;;;12.70;6.87;;;2.50;99.90;;;;;;5053534;28;20200;-48
2022/01/08 10:05:10;;;;;;;15.67;8.17;;;2.50;99.90;;;;;;5042527;28;20208;-48
2022/01/08 10:07:37;;;;;;;13.00;7.17;;;2.50;99.90;;;;;;5052965;28;20324;-39
2022/01/08 10:10:12;;;;;;;17.57;8.17;;;2.60;99.90;;;;;;5055101;28;20203;-40
2022/01/08 10:12:43;;;;;;;12.83;7.87;;;2.60;99.90;;;;;;5042951;28;21470;-42
2022/01/08 10:17:57;;;;;;;14.03;7.90;;;2.70;99.90;;;;;;5034748;28;20989;-40
2022/01/08 10:20:35;;;;;;;13.47;7.40;;;2.70;99.90;;;;;;5039064;28;20697;-40
2022/01/08 10:23:18;;;;;;;19.37;7.47;;;2.80;99.90;;;;;;5042084;28;20218;-40
2022/01/08 10:25:56;;;;;;;11.00;7.53;;;2.80;99.90;;;;;;5063749;28;20256;-44
2022/01/08 10:28:35;;;;;;;14.70;7.30;;;2.80;99.90;;;;;;5044388;28;20795;-40
2022/01/08 10:31:23;;;;;;;15.30;8.23;;;2.80;99.90;;;;;;5040609;28;20218;-40
2022/01/08 10:33:54;;;;;;;15.83;8.50;;;2.90;99.90;;;;;;5035610;28;20607;-43
2022/01/08 10:36:24;;;;;;;15.90;8.53;;;2.90;99.90;;;;;;5023722;28;21125;-42
2022/01/08 10:38:52;;;;;;;19.20;9.87;;;2.90;99.90;;;;;;5046393;28;20218;-46
2022/01/08 10:41:19;;;;;;;14.80;10.03;;;3.00;99.90;;;;;;5066212;28;20222;-43
2022/01/08 10:43:46;;;;;;;18.60;10.03;;;3.00;99.90;;;;;;5064286;28;20396;-43
2022/01/08 10:46:16;;;;;;;18.37;10.27;;;3.10;99.90;;;;;;5036697;28;20254;-42
2022/01/08 10:48:45;;;;;;;14.50;8.73;;;3.10;99.90;;;;;;5058837;28;20231;-42
2022/01/08 10:51:17;;;;;;;15.40;9.13;;;3.10;99.90;;;;;;5017233;22;20251;-67
2022/01/08 10:54:12;;;;;;;15.40;9.33;;;3.20;99.90;;;;;;4982900;28;20217;-66
2022/01/08 10:56:42;;;;;;;14.20;8.47;;;3.30;99.90;;;;;;4994641;28;20228;-67
2022/01/08 10:59:12;;;;;;;15.30;9.03;;;3.20;99.90;;;;;;5004465;28;20320;-67
2022/01/08 11:01:44;;;;;;;14.13;9.37;;;3.20;99.90;;;;;;4986204;22;21209;-47
2022/01/08 11:04:13;;;;;;;13.53;8.90;;;3.20;99.90;;;;;;5014169;28;20441;-43
2022/01/08 11:06:58;;;;;;;16.90;9.13;;;3.20;99.90;;;;;;4996010;28;20224;-43
2022/01/08 11:09:27;;;;;;;12.57;9.23;;;3.30;99.90;;;;;;4994891;28;20824;-44
2022/01/08 11:11:56;;;;;;;13.17;7.63;;;3.30;99.90;;;;;;5003014;28;20228;-44
2022/01/08 11:17:14;;;;;;;12.67;8.00;;;3.20;99.90;;;;;;4994712;28;20200;-44
2022/01/08 11:19:44;;;;;;;13.20;7.73;;;3.30;99.90;;;;;;5007492;28;20668;-44
2022/01/08 11:22:15;;;;;;;15.93;8.50;;;3.30;99.90;;;;;;4995140;28;20229;-44
2022/01/08 11:24:50;;;;;;;14.20;7.87;;;3.30;99.90;;;;;;5002192;28;20208;-44
2022/01/08 11:27:21;;;;;;;15.10;7.73;;;3.30;99.90;;;;;;4990929;28;20216;-44
2022/01/08 11:29:54;;;;;;;13.73;8.17;;;3.40;99.90;;;;;;5023698;28;20208;-44
2022/01/08 11:32:22;;;;;;;12.17;8.00;;;3.40;99.90;;;;;;4990609;28;20711;-44
2022/01/08 11:34:50;;;;;;;15.57;8.40;;;3.40;99.90;;;;;;5026686;28;20578;-43
2022/01/08 11:37:20;;;;;;;15.37;7.60;;;3.40;99.90;;;;;;4994542;28;20353;-44
2022/01/08 11:39:48;;;;;;;13.93;8.27;;;3.50;99.90;;;;;;5018182;28;20206;-43
2022/01/08 11:42:15;;;;;;;9.40;7.20;;;3.60;99.90;;;;;;4984972;28;20599;-44
2022/01/08 11:44:42;;;;;;;11.47;6.97;;;3.60;99.90;;;;;;5014848;28;20212;-43
2022/01/08 11:47:09;;;;;;;11.57;7.80;;;3.60;99.90;;;;;;5009116;28;20233;-44
2022/01/08 11:49:37;;;;;;;14.20;8.60;;;3.60;99.90;;;;;;5010135;28;20212;-44
2022/01/08 11:52:20;;;;;;;14.40;8.10;;;3.60;99.90;;;;;;5012626;28;20222;-43
2022/01/08 11:54:49;;;;;;;14.47;8.50;;;3.70;99.90;;;;;;5007193;28;20544;-44
2022/01/08 11:57:18;;;;;;;20.23;7.87;;;3.70;99.90;;;;;;4998116;28;21113;-43
2022/01/08 11:59:46;;;;;;;9.60;6.60;;;3.70;99.90;;;;;;5010805;28;20219;-44
2022/01/08 12:02:15;;;;;;;10.97;7.10;;;3.70;99.90;;;;;;5010405;28;20600;-43
2022/01/08 12:04:44;;;;;;;13.17;7.27;;;3.80;99.90;;;;;;4995506;28;20734;-43
2022/01/08 12:07:33;;;;;;;15.30;7.33;;;3.80;99.90;;;;;;5011306;28;20886;-50
2022/01/08 12:10:19;;;;;;;13.00;6.83;;;3.80;99.90;;;;;;4998916;28;20213;-49
2022/01/08 12:12:57;;;;;;;11.47;6.37;;;3.90;99.90;;;;;;5003499;28;20315;-50
2022/01/08 12:15:47;;;;;;;12.77;6.97;;;3.90;99.90;;;;;;5009329;28;20211;-49
2022/01/08 12:18:16;;;;;;;17.30;6.50;;;3.90;99.90;;;;;;5021649;28;20399;-49
2022/01/08 12:20:46;;;;;;;10.63;6.23;;;3.90;99.90;;;;;;4977435;28;20394;-50
2022/01/08 12:23:32;;;;;;;10.90;5.93;;;4.00;99.90;;;;;;4996318;28;20220;-50
2022/01/08 12:26:01;;;;;;;11.90;6.73;;;3.90;99.90;;;;;;4990272;28;20303;-50
2022/01/08 12:28:53;;;;;;;14.80;6.60;;;4.00;99.90;;;;;;4987846;28;20205;-49
2022/01/08 12:31:28;;;;;;;10.53;6.57;;;4.00;99.90;;;;;;5007442;28;20226;-49
2022/01/08 12:34:24;;;;;;;12.53;7.17;;;4.00;99.90;;;;;;5014656;28;20263;-49
2022/01/08 12:36:52;;;;;;;14.20;6.83;;;4.20;99.90;;;;;;4995945;28;20220;-50
2022/01/08 12:39:26;;;;;;;15.93;6.13;;;4.20;99.90;;;;;;4978811;28;20211;-49
2022/01/08 12:42:26;;;;;;;9.00;6.20;;;4.10;99.90;;;;;;5010093;28;20226;-50
2022/01/08 12:44:58;;;;;;;16.13;6.70;;;4.10;99.90;;;;;;5009384;28;20215;-50
2022/01/08 12:47:42;;;;;;;12.57;6.53;;;4.10;99.90;;;;;;5004828;28;20217;-50
2022/01/08 12:50:27;;;;;;;12.83;6.50;;;4.10;99.90;;;;;;5008423;28;20215;-44
2022/01/08 12:53:22;;;;;;;11.93;6.47;;;4.00;99.90;;;;;;5005471;28;20243;-43
2022/01/08 12:56:20;;;;;;;10.60;6.73;;;4.00;99.90;;;;;;4998056;28;20218;-44
2022/01/08 12:58:51;;;;;;;11.57;6.23;;;4.00;99.90;;;;;;4943612;28;20870;-44
2022/01/08 13:01:20;;;;;;;13.20;6.90;;;4.00;99.90;;;;;;4978568;28;20783;-44
2022/01/08 13:03:49;;;;;;;14.83;6.60;;;4.00;99.90;;;;;;5012285;28;20205;-44
2022/01/08 13:06:40;;;;;;;15.90;6.67;;;4.10;99.90;;;;;;4987509;28;20678;-44
2022/01/08 13:09:08;;;;;;;10.10;5.93;;;4.10;99.90;;;;;;5016464;28;20202;-44
2022/01/08 13:11:40;;;;;;;14.03;6.23;;;4.00;99.90;;;;;;4984948;28;20257;-44
2022/01/08 13:14:10;;;;;;;10.30;5.80;;;4.10;99.90;;;;;;4997855;28;20205;-44
2022/01/08 13:16:39;;;;;;;8.33;5.03;;;4.10;99.90;;;;;;4976032;28;20283;-44
2022/01/08 13:19:09;;;;;;;15.23;6.27;;;4.10;99.90;;;;;;5014202;28;20213;-44